sensor_id;sensor_type;location;lat;lon;timestamp;P1;durP1;ratioP1;P2;durP2;ratioP2
37409;SDS011;23275;48.914;12.566;2023-11-21T00:02:19;5.68;;;1.90;;
37409;SDS011;23275;48.914;12.566;2023-11-21T00:04:45;7.60;;;2.03;;
37409;SDS011;23275;48.914;12.566;2023-11-21T00:07:11;5.15;;;1.70;;
37409;SDS011;23275;48.914;12.566;2023-11-21T00:09:36;3.67;;;1.52;;
37409;SDS011;23275;48.914;12.566;2023-11-21T00:12:02;3.80;;;1.80;;
37409;SDS011;23275;48.914;12.566;2023-11-21T00:14:28;8.05;;;1.90;;
37409;SDS011;23275;48.914;12.566;2023-11-21T00:16:53;6.68;;;2.00;;
37409;SDS011;23275;48.914;12.566;2023-11-21T00:19:19;5.60;;;1.63;;
37409;SDS011;23275;48.914;12.566;2023-11-21T00:21:45;4.68;;;1.80;;
37409;SDS011;23275;48.914;12.566;2023-11-21T00:24:11;5.15;;;1.95;;
37409;SDS011;23275;48.914;12.566;2023-11-21T00:26:39;5.63;;;1.75;;
37409;SDS011;23275;48.914;12.566;2023-11-21T00:29:05;5.50;;;2.20;;
37409;SDS011;23275;48.914;12.566;2023-11-21T00:31:33;6.30;;;2.30;;
37409;SDS011;23275;48.914;12.566;2023-11-21T00:33:59;6.88;;;2.20;;
37409;SDS011;23275;48.914;12.566;2023-11-21T00:36:24;7.88;;;1.92;;
37409;SDS011;23275;48.914;12.566;2023-11-21T00:38:51;5.28;;;2.08;;
37409;SDS011;23275;48.914;12.566;2023-11-21T00:41:16;4.80;;;1.55;;
37409;SDS011;23275;48.914;12.566;2023-11-21T00:43:42;4.95;;;1.98;;
37409;SDS011;23275;48.914;12.566;2023-11-21T00:46:07;6.60;;;2.08;;
37409;SDS011;23275;48.914;12.566;2023-11-21T00:48:33;5.28;;;2.22;;
37409;SDS011;23275;48.914;12.566;2023-11-21T00:50:58;5.85;;;1.90;;
37409;SDS011;23275;48.914;12.566;2023-11-21T00:53:24;4.50;;;1.80;;
37409;SDS011;23275;48.914;12.566;2023-11-21T00:55:49;5.50;;;1.65;;
37409;SDS011;23275;48.914;12.566;2023-11-21T00:58:17;4.65;;;1.83;;
37409;SDS011;23275;48.914;12.566;2023-11-21T01:00:42;8.00;;;1.90;;
37409;SDS011;23275;48.914;12.566;2023-11-21T01:03:08;4.43;;;2.00;;
37409;SDS011;23275;48.914;12.566;2023-11-21T01:05:34;4.88;;;1.67;;
37409;SDS011;23275;48.914;12.566;2023-11-21T01:07:59;8.52;;;2.47;;
37409;SDS011;23275;48.914;12.566;2023-11-21T01:10:25;8.75;;;1.88;;
37409;SDS011;23275;48.914;12.566;2023-11-21T01:12:51;6.88;;;1.92;;
37409;SDS011;23275;48.914;12.566;2023-11-21T01:15:16;5.30;;;1.77;;
37409;SDS011;23275;48.914;12.566;2023-11-21T01:17:42;5.05;;;1.60;;
37409;SDS011;23275;48.914;12.566;2023-11-21T01:20:07;6.15;;;1.92;;
37409;SDS011;23275;48.914;12.566;2023-11-21T01:22:37;12.68;;;1.90;;
37409;SDS011;23275;48.914;12.566;2023-11-21T01:25:03;6.57;;;1.90;;
37409;SDS011;23275;48.914;12.566;2023-11-21T01:27:30;7.25;;;1.95;;
37409;SDS011;23275;48.914;12.566;2023-11-21T01:29:55;6.68;;;2.00;;
37409;SDS011;23275;48.914;12.566;2023-11-21T01:32:21;4.22;;;1.90;;
37409;SDS011;23275;48.914;12.566;2023-11-21T01:34:47;6.78;;;1.80;;
37409;SDS011;23275;48.914;12.566;2023-11-21T01:37:15;6.25;;;1.80;;
37409;SDS011;23275;48.914;12.566;2023-11-21T01:39:42;5.75;;;1.88;;
37409;SDS011;23275;48.914;12.566;2023-11-21T01:42:10;5.43;;;1.85;;
37409;SDS011;23275;48.914;12.566;2023-11-21T01:44:37;3.78;;;1.83;;
37409;SDS011;23275;48.914;12.566;2023-11-21T01:47:04;7.75;;;2.10;;
37409;SDS011;23275;48.914;12.566;2023-11-21T01:49:33;4.80;;;1.90;;
37409;SDS011;23275;48.914;12.566;2023-11-21T01:51:59;6.88;;;2.40;;
37409;SDS011;23275;48.914;12.566;2023-11-21T01:54:24;10.50;;;2.53;;
37409;SDS011;23275;48.914;12.566;2023-11-21T01:56:50;6.93;;;2.50;;
37409;SDS011;23275;48.914;12.566;2023-11-21T01:59:20;6.63;;;2.45;;
37409;SDS011;23275;48.914;12.566;2023-11-21T02:01:47;11.77;;;2.88;;
37409;SDS011;23275;48.914;12.566;2023-11-21T02:04:13;6.70;;;2.50;;
37409;SDS011;23275;48.914;12.566;2023-11-21T02:06:38;9.50;;;3.05;;
37409;SDS011;23275;48.914;12.566;2023-11-21T02:09:04;10.48;;;3.03;;
37409;SDS011;23275;48.914;12.566;2023-11-21T02:11:30;10.45;;;3.30;;
37409;SDS011;23275;48.914;12.566;2023-11-21T02:13:57;7.70;;;3.65;;
37409;SDS011;23275;48.914;12.566;2023-11-21T02:16:24;8.77;;;3.50;;
37409;SDS011;23275;48.914;12.566;2023-11-21T02:18:50;6.88;;;3.70;;
37409;SDS011;23275;48.914;12.566;2023-11-21T02:21:17;8.52;;;3.35;;
37409;SDS011;23275;48.914;12.566;2023-11-21T02:23:44;6.90;;;3.38;;
37409;SDS011;23275;48.914;12.566;2023-11-21T02:26:11;6.93;;;3.38;;
37409;SDS011;23275;48.914;12.566;2023-11-21T02:28:37;10.18;;;3.60;;
37409;SDS011;23275;48.914;12.566;2023-11-21T02:31:04;5.72;;;3.85;;
37409;SDS011;23275;48.914;12.566;2023-11-21T02:33:30;7.85;;;3.58;;
37409;SDS011;23275;48.914;12.566;2023-11-21T02:35:59;7.13;;;3.90;;
37409;SDS011;23275;48.914;12.566;2023-11-21T02:38:25;9.70;;;3.42;;
37409;SDS011;23275;48.914;12.566;2023-11-21T02:40:51;7.85;;;4.43;;
37409;SDS011;23275;48.914;12.566;2023-11-21T02:43:16;8.02;;;3.63;;
37409;SDS011;23275;48.914;12.566;2023-11-21T02:45:42;7.40;;;3.60;;
37409;SDS011;23275;48.914;12.566;2023-11-21T02:48:08;7.25;;;4.28;;
37409;SDS011;23275;48.914;12.566;2023-11-21T02:50:34;8.18;;;4.32;;
37409;SDS011;23275;48.914;12.566;2023-11-21T02:53:00;8.27;;;3.85;;
37409;SDS011;23275;48.914;12.566;2023-11-21T02:55:26;8.00;;;3.85;;
37409;SDS011;23275;48.914;12.566;2023-11-21T02:57:53;9.15;;;3.70;;
37409;SDS011;23275;48.914;12.566;2023-11-21T03:00:21;7.40;;;3.67;;
37409;SDS011;23275;48.914;12.566;2023-11-21T03:02:49;16.35;;;4.65;;
37409;SDS011;23275;48.914;12.566;2023-11-21T03:05:15;7.38;;;3.80;;
37409;SDS011;23275;48.914;12.566;2023-11-21T03:07:40;7.35;;;3.53;;
37409;SDS011;23275;48.914;12.566;2023-11-21T03:10:06;7.25;;;3.30;;
37409;SDS011;23275;48.914;12.566;2023-11-21T03:12:34;6.65;;;3.35;;
37409;SDS011;23275;48.914;12.566;2023-11-21T03:14:59;6.38;;;3.45;;
37409;SDS011;23275;48.914;12.566;2023-11-21T03:17:27;6.20;;;3.40;;
37409;SDS011;23275;48.914;12.566;2023-11-21T03:19:54;9.30;;;4.05;;
37409;SDS011;23275;48.914;12.566;2023-11-21T03:22:19;8.23;;;4.03;;
37409;SDS011;23275;48.914;12.566;2023-11-21T03:24:45;7.60;;;3.78;;
37409;SDS011;23275;48.914;12.566;2023-11-21T03:27:11;7.70;;;4.13;;
37409;SDS011;23275;48.914;12.566;2023-11-21T03:29:37;8.40;;;4.22;;
37409;SDS011;23275;48.914;12.566;2023-11-21T03:32:02;7.85;;;4.18;;
37409;SDS011;23275;48.914;12.566;2023-11-21T03:34:28;5.22;;;3.17;;
37409;SDS011;23275;48.914;12.566;2023-11-21T03:36:54;8.10;;;4.10;;
37409;SDS011;23275;48.914;12.566;2023-11-21T03:39:20;10.65;;;3.95;;
37409;SDS011;23275;48.914;12.566;2023-11-21T03:41:46;10.75;;;5.00;;
37409;SDS011;23275;48.914;12.566;2023-11-21T03:44:12;11.13;;;4.43;;
37409;SDS011;23275;48.914;12.566;2023-11-21T03:46:38;9.13;;;5.07;;
37409;SDS011;23275;48.914;12.566;2023-11-21T03:49:03;8.75;;;4.85;;
37409;SDS011;23275;48.914;12.566;2023-11-21T03:51:29;8.95;;;4.65;;
37409;SDS011;23275;48.914;12.566;2023-11-21T03:53:55;8.88;;;4.50;;
37409;SDS011;23275;48.914;12.566;2023-11-21T03:56:20;9.13;;;4.07;;
37409;SDS011;23275;48.914;12.566;2023-11-21T03:58:48;11.35;;;4.53;;
37409;SDS011;23275;48.914;12.566;2023-11-21T04:01:23;7.97;;;4.50;;
37409;SDS011;23275;48.914;12.566;2023-11-21T04:03:49;8.10;;;4.32;;
37409;SDS011;23275;48.914;12.566;2023-11-21T04:06:16;10.60;;;4.45;;
37409;SDS011;23275;48.914;12.566;2023-11-21T04:08:42;8.77;;;4.18;;
37409;SDS011;23275;48.914;12.566;2023-11-21T04:11:09;12.10;;;4.90;;
37409;SDS011;23275;48.914;12.566;2023-11-21T04:13:36;11.73;;;4.50;;
37409;SDS011;23275;48.914;12.566;2023-11-21T04:16:03;9.82;;;4.28;;
37409;SDS011;23275;48.914;12.566;2023-11-21T04:18:30;15.93;;;4.80;;
37409;SDS011;23275;48.914;12.566;2023-11-21T04:20:55;9.10;;;4.60;;
37409;SDS011;23275;48.914;12.566;2023-11-21T04:23:21;9.30;;;5.20;;
37409;SDS011;23275;48.914;12.566;2023-11-21T04:25:46;8.85;;;4.65;;
37409;SDS011;23275;48.914;12.566;2023-11-21T04:28:12;10.93;;;5.15;;
37409;SDS011;23275;48.914;12.566;2023-11-21T04:30:38;15.23;;;4.13;;
37409;SDS011;23275;48.914;12.566;2023-11-21T04:33:04;10.45;;;4.90;;
37409;SDS011;23275;48.914;12.566;2023-11-21T04:35:30;12.35;;;4.65;;
37409;SDS011;23275;48.914;12.566;2023-11-21T04:37:55;7.13;;;3.75;;
37409;SDS011;23275;48.914;12.566;2023-11-21T04:40:22;9.70;;;4.22;;
37409;SDS011;23275;48.914;12.566;2023-11-21T04:42:48;7.38;;;3.83;;
37409;SDS011;23275;48.914;12.566;2023-11-21T04:45:13;10.20;;;4.78;;
37409;SDS011;23275;48.914;12.566;2023-11-21T04:47:39;7.85;;;4.63;;
37409;SDS011;23275;48.914;12.566;2023-11-21T04:50:04;11.68;;;3.80;;
37409;SDS011;23275;48.914;12.566;2023-11-21T04:52:31;8.75;;;3.85;;
37409;SDS011;23275;48.914;12.566;2023-11-21T04:54:58;9.18;;;3.95;;
37409;SDS011;23275;48.914;12.566;2023-11-21T04:57:25;7.15;;;4.32;;
37409;SDS011;23275;48.914;12.566;2023-11-21T04:59:53;10.52;;;4.13;;
37409;SDS011;23275;48.914;12.566;2023-11-21T05:02:19;8.20;;;4.30;;
37409;SDS011;23275;48.914;12.566;2023-11-21T05:04:45;9.65;;;4.63;;
37409;SDS011;23275;48.914;12.566;2023-11-21T05:07:11;7.30;;;3.78;;
37409;SDS011;23275;48.914;12.566;2023-11-21T05:09:40;10.13;;;4.05;;
37409;SDS011;23275;48.914;12.566;2023-11-21T05:12:09;11.57;;;4.32;;
37409;SDS011;23275;48.914;12.566;2023-11-21T05:14:34;8.18;;;4.50;;
37409;SDS011;23275;48.914;12.566;2023-11-21T05:17:00;10.77;;;4.30;;
37409;SDS011;23275;48.914;12.566;2023-11-21T05:19:26;6.25;;;4.03;;
37409;SDS011;23275;48.914;12.566;2023-11-21T05:21:52;11.57;;;4.65;;
37409;SDS011;23275;48.914;12.566;2023-11-21T05:24:17;7.95;;;3.88;;
37409;SDS011;23275;48.914;12.566;2023-11-21T05:26:43;10.82;;;4.85;;
37409;SDS011;23275;48.914;12.566;2023-11-21T05:29:08;8.35;;;3.63;;
37409;SDS011;23275;48.914;12.566;2023-11-21T05:31:35;9.73;;;4.15;;
37409;SDS011;23275;48.914;12.566;2023-11-21T05:34:02;9.85;;;4.88;;
37409;SDS011;23275;48.914;12.566;2023-11-21T05:36:30;10.40;;;4.78;;
37409;SDS011;23275;48.914;12.566;2023-11-21T05:38:56;12.18;;;5.65;;
37409;SDS011;23275;48.914;12.566;2023-11-21T05:41:21;13.25;;;5.82;;
37409;SDS011;23275;48.914;12.566;2023-11-21T05:43:48;12.65;;;3.97;;
37409;SDS011;23275;48.914;12.566;2023-11-21T05:46:13;8.52;;;3.85;;
37409;SDS011;23275;48.914;12.566;2023-11-21T05:48:39;7.68;;;4.47;;
37409;SDS011;23275;48.914;12.566;2023-11-21T05:51:06;8.52;;;4.75;;
37409;SDS011;23275;48.914;12.566;2023-11-21T05:53:32;10.15;;;5.05;;
37409;SDS011;23275;48.914;12.566;2023-11-21T05:55:57;6.70;;;4.18;;
37409;SDS011;23275;48.914;12.566;2023-11-21T05:58:23;9.23;;;4.65;;
37409;SDS011;23275;48.914;12.566;2023-11-21T06:00:49;8.10;;;4.47;;
37409;SDS011;23275;48.914;12.566;2023-11-21T06:03:14;9.50;;;4.00;;
37409;SDS011;23275;48.914;12.566;2023-11-21T06:05:40;10.27;;;5.43;;
37409;SDS011;23275;48.914;12.566;2023-11-21T06:08:05;8.60;;;4.13;;
37409;SDS011;23275;48.914;12.566;2023-11-21T06:10:32;8.77;;;4.05;;
37409;SDS011;23275;48.914;12.566;2023-11-21T06:12:58;7.30;;;4.05;;
37409;SDS011;23275;48.914;12.566;2023-11-21T06:15:23;10.57;;;4.22;;
37409;SDS011;23275;48.914;12.566;2023-11-21T06:17:49;13.63;;;4.78;;
37409;SDS011;23275;48.914;12.566;2023-11-21T06:20:17;10.07;;;4.82;;
37409;SDS011;23275;48.914;12.566;2023-11-21T06:22:44;10.40;;;4.80;;
37409;SDS011;23275;48.914;12.566;2023-11-21T06:25:11;10.18;;;5.38;;
37409;SDS011;23275;48.914;12.566;2023-11-21T06:27:41;12.10;;;4.78;;
37409;SDS011;23275;48.914;12.566;2023-11-21T06:30:12;11.18;;;5.63;;
37409;SDS011;23275;48.914;12.566;2023-11-21T06:32:40;14.50;;;6.32;;
37409;SDS011;23275;48.914;12.566;2023-11-21T06:35:06;14.52;;;6.65;;
37409;SDS011;23275;48.914;12.566;2023-11-21T06:37:33;14.10;;;6.25;;
37409;SDS011;23275;48.914;12.566;2023-11-21T06:39:59;11.25;;;6.50;;
37409;SDS011;23275;48.914;12.566;2023-11-21T06:42:25;12.88;;;6.90;;
37409;SDS011;23275;48.914;12.566;2023-11-21T06:44:52;14.43;;;6.90;;
37409;SDS011;23275;48.914;12.566;2023-11-21T06:47:18;11.30;;;6.53;;
37409;SDS011;23275;48.914;12.566;2023-11-21T06:49:47;13.10;;;7.05;;
37409;SDS011;23275;48.914;12.566;2023-11-21T06:52:15;11.48;;;6.28;;
37409;SDS011;23275;48.914;12.566;2023-11-21T06:54:41;11.38;;;5.93;;
37409;SDS011;23275;48.914;12.566;2023-11-21T06:57:06;13.57;;;6.68;;
37409;SDS011;23275;48.914;12.566;2023-11-21T06:59:32;16.70;;;7.10;;
37409;SDS011;23275;48.914;12.566;2023-11-21T07:01:58;13.65;;;6.85;;
37409;SDS011;23275;48.914;12.566;2023-11-21T07:04:24;13.02;;;6.53;;
37409;SDS011;23275;48.914;12.566;2023-11-21T07:06:51;11.90;;;5.63;;
37409;SDS011;23275;48.914;12.566;2023-11-21T07:09:18;13.50;;;6.53;;
37409;SDS011;23275;48.914;12.566;2023-11-21T07:11:46;11.10;;;5.40;;
37409;SDS011;23275;48.914;12.566;2023-11-21T07:14:13;9.23;;;5.50;;
37409;SDS011;23275;48.914;12.566;2023-11-21T07:16:39;11.95;;;6.60;;
37409;SDS011;23275;48.914;12.566;2023-11-21T07:19:04;10.45;;;6.45;;
37409;SDS011;23275;48.914;12.566;2023-11-21T07:21:33;13.23;;;6.38;;
37409;SDS011;23275;48.914;12.566;2023-11-21T07:24:00;17.05;;;6.15;;
37409;SDS011;23275;48.914;12.566;2023-11-21T07:26:29;10.88;;;6.32;;
37409;SDS011;23275;48.914;12.566;2023-11-21T07:28:55;12.07;;;6.63;;
37409;SDS011;23275;48.914;12.566;2023-11-21T07:31:21;13.15;;;6.40;;
37409;SDS011;23275;48.914;12.566;2023-11-21T07:33:47;13.85;;;6.93;;
37409;SDS011;23275;48.914;12.566;2023-11-21T07:36:13;11.82;;;6.05;;
37409;SDS011;23275;48.914;12.566;2023-11-21T07:38:40;16.13;;;6.53;;
37409;SDS011;23275;48.914;12.566;2023-11-21T07:41:06;12.02;;;6.25;;
37409;SDS011;23275;48.914;12.566;2023-11-21T07:43:35;10.05;;;6.25;;
37409;SDS011;23275;48.914;12.566;2023-11-21T07:46:02;13.80;;;6.03;;
37409;SDS011;23275;48.914;12.566;2023-11-21T07:48:29;21.17;;;9.35;;
37409;SDS011;23275;48.914;12.566;2023-11-21T07:50:57;15.40;;;6.45;;
37409;SDS011;23275;48.914;12.566;2023-11-21T07:53:24;12.60;;;6.60;;
37409;SDS011;23275;48.914;12.566;2023-11-21T07:55:50;11.30;;;6.18;;
37409;SDS011;23275;48.914;12.566;2023-11-21T07:58:17;12.27;;;6.60;;
37409;SDS011;23275;48.914;12.566;2023-11-21T08:00:43;11.77;;;5.80;;
37409;SDS011;23275;48.914;12.566;2023-11-21T08:03:08;9.93;;;5.88;;
37409;SDS011;23275;48.914;12.566;2023-11-21T08:05:34;12.27;;;6.55;;
37409;SDS011;23275;48.914;12.566;2023-11-21T08:07:59;13.52;;;6.05;;
37409;SDS011;23275;48.914;12.566;2023-11-21T08:10:25;11.80;;;6.13;;
37409;SDS011;23275;48.914;12.566;2023-11-21T08:12:51;14.75;;;6.43;;
37409;SDS011;23275;48.914;12.566;2023-11-21T08:15:17;12.57;;;6.32;;
37409;SDS011;23275;48.914;12.566;2023-11-21T08:17:43;11.57;;;5.60;;
37409;SDS011;23275;48.914;12.566;2023-11-21T08:20:08;11.27;;;5.60;;
37409;SDS011;23275;48.914;12.566;2023-11-21T08:22:36;13.77;;;6.53;;
37409;SDS011;23275;48.914;12.566;2023-11-21T08:25:01;15.80;;;6.38;;
37409;SDS011;23275;48.914;12.566;2023-11-21T08:27:29;13.82;;;5.97;;
37409;SDS011;23275;48.914;12.566;2023-11-21T08:29:54;17.85;;;6.78;;
37409;SDS011;23275;48.914;12.566;2023-11-21T08:32:21;12.68;;;6.38;;
37409;SDS011;23275;48.914;12.566;2023-11-21T08:34:46;14.65;;;6.35;;
37409;SDS011;23275;48.914;12.566;2023-11-21T08:37:15;15.80;;;6.20;;
37409;SDS011;23275;48.914;12.566;2023-11-21T08:39:41;12.13;;;6.28;;
37409;SDS011;23275;48.914;12.566;2023-11-21T08:42:07;16.63;;;7.70;;
37409;SDS011;23275;48.914;12.566;2023-11-21T08:44:33;15.63;;;6.18;;
37409;SDS011;23275;48.914;12.566;2023-11-21T08:46:58;13.43;;;6.78;;
37409;SDS011;23275;48.914;12.566;2023-11-21T08:49:24;12.40;;;6.50;;
37409;SDS011;23275;48.914;12.566;2023-11-21T08:51:52;9.98;;;5.35;;
37409;SDS011;23275;48.914;12.566;2023-11-21T08:54:20;13.85;;;6.03;;
37409;SDS011;23275;48.914;12.566;2023-11-21T08:56:46;14.20;;;5.85;;
37409;SDS011;23275;48.914;12.566;2023-11-21T08:59:11;10.18;;;5.68;;
37409;SDS011;23275;48.914;12.566;2023-11-21T09:01:40;10.20;;;5.07;;
37409;SDS011;23275;48.914;12.566;2023-11-21T09:04:06;10.98;;;5.18;;
37409;SDS011;23275;48.914;12.566;2023-11-21T09:06:31;11.23;;;6.13;;
37409;SDS011;23275;48.914;12.566;2023-11-21T09:08:57;9.70;;;5.55;;
37409;SDS011;23275;48.914;12.566;2023-11-21T09:11:23;11.13;;;5.97;;
37409;SDS011;23275;48.914;12.566;2023-11-21T09:13:50;10.10;;;5.47;;
37409;SDS011;23275;48.914;12.566;2023-11-21T09:16:16;13.45;;;5.70;;
37409;SDS011;23275;48.914;12.566;2023-11-21T09:18:42;13.07;;;5.60;;
37409;SDS011;23275;48.914;12.566;2023-11-21T09:21:08;11.25;;;5.45;;
37409;SDS011;23275;48.914;12.566;2023-11-21T09:23:34;10.07;;;5.13;;
37409;SDS011;23275;48.914;12.566;2023-11-21T09:26:00;10.02;;;5.65;;
37409;SDS011;23275;48.914;12.566;2023-11-21T09:28:26;11.85;;;5.07;;
37409;SDS011;23275;48.914;12.566;2023-11-21T09:30:52;8.88;;;5.10;;
37409;SDS011;23275;48.914;12.566;2023-11-21T09:33:18;8.88;;;4.75;;
37409;SDS011;23275;48.914;12.566;2023-11-21T09:35:44;10.20;;;4.78;;
37409;SDS011;23275;48.914;12.566;2023-11-21T09:38:09;13.23;;;5.65;;
37409;SDS011;23275;48.914;12.566;2023-11-21T09:40:36;10.45;;;5.32;;
37409;SDS011;23275;48.914;12.566;2023-11-21T09:43:03;8.73;;;4.80;;
37409;SDS011;23275;48.914;12.566;2023-11-21T09:45:36;9.10;;;4.55;;
37409;SDS011;23275;48.914;12.566;2023-11-21T09:48:04;11.13;;;4.88;;
37409;SDS011;23275;48.914;12.566;2023-11-21T09:50:31;10.25;;;4.80;;
37409;SDS011;23275;48.914;12.566;2023-11-21T09:55:46;8.73;;;4.50;;
37409;SDS011;23275;48.914;12.566;2023-11-21T09:58:13;6.70;;;3.80;;
37409;SDS011;23275;48.914;12.566;2023-11-21T10:00:43;7.63;;;3.35;;
37409;SDS011;23275;48.914;12.566;2023-11-21T10:03:09;9.52;;;3.38;;
37409;SDS011;23275;48.914;12.566;2023-11-21T10:05:36;7.22;;;2.90;;
37409;SDS011;23275;48.914;12.566;2023-11-21T10:08:04;6.80;;;3.17;;
37409;SDS011;23275;48.914;12.566;2023-11-21T10:10:32;9.40;;;3.72;;
37409;SDS011;23275;48.914;12.566;2023-11-21T10:13:00;9.48;;;3.97;;
37409;SDS011;23275;48.914;12.566;2023-11-21T10:15:28;9.80;;;3.70;;
37409;SDS011;23275;48.914;12.566;2023-11-21T10:17:55;7.43;;;3.45;;
37409;SDS011;23275;48.914;12.566;2023-11-21T10:20:21;6.90;;;3.35;;
37409;SDS011;23275;48.914;12.566;2023-11-21T10:22:49;6.35;;;2.72;;
37409;SDS011;23275;48.914;12.566;2023-11-21T10:25:15;6.88;;;2.60;;
37409;SDS011;23275;48.914;12.566;2023-11-21T10:27:41;4.65;;;2.35;;
37409;SDS011;23275;48.914;12.566;2023-11-21T10:30:08;10.90;;;3.25;;
37409;SDS011;23275;48.914;12.566;2023-11-21T10:32:38;6.82;;;2.80;;
37409;SDS011;23275;48.914;12.566;2023-11-21T10:35:05;5.68;;;2.40;;
37409;SDS011;23275;48.914;12.566;2023-11-21T10:37:35;6.28;;;2.88;;
37409;SDS011;23275;48.914;12.566;2023-11-21T10:40:10;6.40;;;3.00;;
37409;SDS011;23275;48.914;12.566;2023-11-21T10:42:39;6.78;;;2.75;;
37409;SDS011;23275;48.914;12.566;2023-11-21T10:45:05;7.50;;;2.60;;
37409;SDS011;23275;48.914;12.566;2023-11-21T10:47:37;7.18;;;2.65;;
37409;SDS011;23275;48.914;12.566;2023-11-21T10:50:04;8.05;;;2.67;;
37409;SDS011;23275;48.914;12.566;2023-11-21T10:52:30;6.53;;;2.67;;
37409;SDS011;23275;48.914;12.566;2023-11-21T10:54:55;4.50;;;2.50;;
37409;SDS011;23275;48.914;12.566;2023-11-21T10:57:24;9.00;;;2.72;;
37409;SDS011;23275;48.914;12.566;2023-11-21T10:59:50;8.52;;;2.22;;
37409;SDS011;23275;48.914;12.566;2023-11-21T11:02:25;9.68;;;2.92;;
37409;SDS011;23275;48.914;12.566;2023-11-21T11:04:53;7.20;;;2.53;;
37409;SDS011;23275;48.914;12.566;2023-11-21T11:07:25;10.25;;;2.75;;
37409;SDS011;23275;48.914;12.566;2023-11-21T11:09:53;6.65;;;2.55;;
37409;SDS011;23275;48.914;12.566;2023-11-21T11:12:19;9.90;;;2.38;;
37409;SDS011;23275;48.914;12.566;2023-11-21T11:14:45;5.55;;;2.88;;
37409;SDS011;23275;48.914;12.566;2023-11-21T11:17:12;7.30;;;3.00;;
37409;SDS011;23275;48.914;12.566;2023-11-21T11:19:38;7.45;;;3.65;;
37409;SDS011;23275;48.914;12.566;2023-11-21T11:27:52;8.73;;;2.45;;
37409;SDS011;23275;48.914;12.566;2023-11-21T11:38:56;8.50;;;2.60;;
37409;SDS011;23275;48.914;12.566;2023-11-21T11:41:25;7.72;;;2.80;;
37409;SDS011;23275;48.914;12.566;2023-11-21T11:43:52;7.15;;;2.85;;
37409;SDS011;23275;48.914;12.566;2023-11-21T11:46:18;7.97;;;3.10;;
37409;SDS011;23275;48.914;12.566;2023-11-21T11:48:47;13.77;;;7.70;;
37409;SDS011;23275;48.914;12.566;2023-11-21T11:51:14;9.82;;;4.38;;
37409;SDS011;23275;48.914;12.566;2023-11-21T11:53:42;8.50;;;3.38;;
37409;SDS011;23275;48.914;12.566;2023-11-21T11:56:33;8.57;;;3.42;;
37409;SDS011;23275;48.914;12.566;2023-11-21T11:59:04;10.52;;;3.30;;
37409;SDS011;23275;48.914;12.566;2023-11-21T12:01:32;8.15;;;3.53;;
37409;SDS011;23275;48.914;12.566;2023-11-21T12:06:42;8.90;;;3.90;;
37409;SDS011;23275;48.914;12.566;2023-11-21T12:09:22;7.47;;;2.92;;
37409;SDS011;23275;48.914;12.566;2023-11-21T12:11:49;8.57;;;3.87;;
37409;SDS011;23275;48.914;12.566;2023-11-21T12:14:15;7.38;;;2.97;;
37409;SDS011;23275;48.914;12.566;2023-11-21T12:16:42;6.57;;;3.47;;
37409;SDS011;23275;48.914;12.566;2023-11-21T12:19:08;7.82;;;3.47;;
37409;SDS011;23275;48.914;12.566;2023-11-21T12:21:35;8.70;;;3.65;;
37409;SDS011;23275;48.914;12.566;2023-11-21T12:24:01;7.90;;;3.60;;
37409;SDS011;23275;48.914;12.566;2023-11-21T12:26:28;6.38;;;3.30;;
37409;SDS011;23275;48.914;12.566;2023-11-21T12:28:53;4.28;;;2.35;;
37409;SDS011;23275;48.914;12.566;2023-11-21T12:31:24;9.32;;;3.13;;
37409;SDS011;23275;48.914;12.566;2023-11-21T12:33:50;8.00;;;3.40;;
37409;SDS011;23275;48.914;12.566;2023-11-21T12:36:16;9.20;;;2.92;;
37409;SDS011;23275;48.914;12.566;2023-11-21T12:38:42;7.32;;;2.85;;
37409;SDS011;23275;48.914;12.566;2023-11-21T12:41:08;6.18;;;2.88;;
37409;SDS011;23275;48.914;12.566;2023-11-21T12:43:37;9.40;;;3.58;;
37409;SDS011;23275;48.914;12.566;2023-11-21T12:46:08;6.95;;;3.40;;
37409;SDS011;23275;48.914;12.566;2023-11-21T12:48:37;8.05;;;4.07;;
37409;SDS011;23275;48.914;12.566;2023-11-21T12:51:07;10.80;;;3.65;;
37409;SDS011;23275;48.914;12.566;2023-11-21T12:53:34;9.52;;;3.78;;
37409;SDS011;23275;48.914;12.566;2023-11-21T12:56:12;8.45;;;3.45;;
37409;SDS011;23275;48.914;12.566;2023-11-21T12:58:43;9.02;;;3.72;;
37409;SDS011;23275;48.914;12.566;2023-11-21T13:03:38;9.23;;;3.42;;
37409;SDS011;23275;48.914;12.566;2023-11-21T13:06:05;9.15;;;3.42;;
37409;SDS011;23275;48.914;12.566;2023-11-21T13:08:32;9.15;;;3.40;;
37409;SDS011;23275;48.914;12.566;2023-11-21T13:10:59;10.52;;;3.88;;
37409;SDS011;23275;48.914;12.566;2023-11-21T13:13:26;14.07;;;6.30;;
37409;SDS011;23275;48.914;12.566;2023-11-21T13:15:54;24.80;;;15.70;;
37409;SDS011;23275;48.914;12.566;2023-11-21T13:18:29;16.65;;;6.82;;
37409;SDS011;23275;48.914;12.566;2023-11-21T13:20:56;10.23;;;4.43;;
37409;SDS011;23275;48.914;12.566;2023-11-21T13:23:37;10.77;;;6.25;;
37409;SDS011;23275;48.914;12.566;2023-11-21T13:26:03;13.80;;;5.60;;
37409;SDS011;23275;48.914;12.566;2023-11-21T13:28:30;8.48;;;4.28;;
37409;SDS011;23275;48.914;12.566;2023-11-21T13:30:59;15.20;;;7.40;;
37409;SDS011;23275;48.914;12.566;2023-11-21T13:33:34;23.38;;;9.52;;
37409;SDS011;23275;48.914;12.566;2023-11-21T13:36:02;12.60;;;7.13;;
37409;SDS011;23275;48.914;12.566;2023-11-21T13:38:32;10.05;;;4.88;;
37409;SDS011;23275;48.914;12.566;2023-11-21T13:41:00;20.50;;;10.65;;
37409;SDS011;23275;48.914;12.566;2023-11-21T13:43:26;9.35;;;4.70;;
37409;SDS011;23275;48.914;12.566;2023-11-21T13:45:54;6.88;;;3.33;;
37409;SDS011;23275;48.914;12.566;2023-11-21T13:48:37;6.93;;;3.28;;
37409;SDS011;23275;48.914;12.566;2023-11-21T13:51:07;7.80;;;3.83;;
37409;SDS011;23275;48.914;12.566;2023-11-21T13:53:41;6.63;;;3.40;;
37409;SDS011;23275;48.914;12.566;2023-11-21T13:56:07;10.35;;;3.40;;
37409;SDS011;23275;48.914;12.566;2023-11-21T13:58:39;10.52;;;3.60;;
37409;SDS011;23275;48.914;12.566;2023-11-21T14:01:18;9.98;;;3.50;;
37409;SDS011;23275;48.914;12.566;2023-11-21T14:04:04;7.55;;;4.03;;
37409;SDS011;23275;48.914;12.566;2023-11-21T14:06:48;6.68;;;3.70;;
37409;SDS011;23275;48.914;12.566;2023-11-21T14:09:16;8.18;;;3.15;;
37409;SDS011;23275;48.914;12.566;2023-11-21T14:11:54;10.70;;;3.92;;
37409;SDS011;23275;48.914;12.566;2023-11-21T14:14:22;7.43;;;3.47;;
37409;SDS011;23275;48.914;12.566;2023-11-21T14:16:53;7.50;;;4.25;;
37409;SDS011;23275;48.914;12.566;2023-11-21T14:19:20;5.28;;;3.55;;
37409;SDS011;23275;48.914;12.566;2023-11-21T14:21:46;7.63;;;3.47;;
37409;SDS011;23275;48.914;12.566;2023-11-21T14:24:14;8.35;;;4.18;;
37409;SDS011;23275;48.914;12.566;2023-11-21T14:26:42;7.70;;;4.10;;
37409;SDS011;23275;48.914;12.566;2023-11-21T14:29:10;8.30;;;3.92;;
37409;SDS011;23275;48.914;12.566;2023-11-21T14:31:39;8.50;;;4.32;;
37409;SDS011;23275;48.914;12.566;2023-11-21T14:34:05;17.73;;;6.70;;
37409;SDS011;23275;48.914;12.566;2023-11-21T14:36:32;12.38;;;6.90;;
37409;SDS011;23275;48.914;12.566;2023-11-21T14:38:58;12.43;;;6.47;;
37409;SDS011;23275;48.914;12.566;2023-11-21T14:41:24;38.35;;;19.52;;
37409;SDS011;23275;48.914;12.566;2023-11-21T14:43:50;29.90;;;18.27;;
37409;SDS011;23275;48.914;12.566;2023-11-21T14:46:16;22.60;;;15.38;;
37409;SDS011;23275;48.914;12.566;2023-11-21T14:48:44;25.70;;;15.25;;
37409;SDS011;23275;48.914;12.566;2023-11-21T14:51:23;29.75;;;17.88;;